Time;durP1;ratioP1;P1;durP2;ratioP2;P2;SDS_P1;SDS_P2;PMS_P1;PMS_P2;Temp;Humidity;BMP_temperature;BMP_pressure;BME280_temperature;BME280_humidity;BME280_pressure;Samples;Min_cycle;Max_cycle;Signal;HPM_P1;HPM_P2
2022/07/19 00:00:34;;;;;;;3.33;0.63;;;11.00;67.00;;;;;;5018196;28;20034;-60
2022/07/19 00:03:01;;;;;;;4.70;0.75;;;11.10;67.00;;;;;;5014414;28;20496;-60
2022/07/19 00:05:28;;;;;;;1.98;0.43;;;11.20;67.80;;;;;;5014191;28;20048;-60
2022/07/19 00:07:56;;;;;;;3.58;0.40;;;11.30;66.70;;;;;;5014785;28;20573;-60
2022/07/19 00:10:23;;;;;;;1.42;0.60;;;11.30;67.40;;;;;;5009018;28;20049;-60
2022/07/19 00:12:50;;;;;;;1.20;0.40;;;11.40;67.00;;;;;;5011556;28;20180;-59
2022/07/19 00:15:17;;;;;;;6.10;0.55;;;11.50;66.80;;;;;;5008676;28;20099;-59
2022/07/19 00:17:47;;;;;;;2.47;0.80;;;11.50;67.80;;;;;;5017110;28;20029;-60
2022/07/19 00:20:18;;;;;;;4.75;0.95;;;11.60;66.20;;;;;;5016781;28;20525;-59
2022/07/19 00:22:45;;;;;;;3.05;0.50;;;11.70;66.80;;;;;;5009949;28;20045;-59
2022/07/19 00:25:13;;;;;;;2.92;0.63;;;11.80;66.60;;;;;;5012513;28;20021;-59
2022/07/19 00:27:42;;;;;;;6.97;1.15;;;11.90;66.40;;;;;;5024377;28;20037;-58
2022/07/19 00:30:10;;;;;;;1.70;0.70;;;12.00;66.30;;;;;;5020369;28;20037;-53
2022/07/19 00:32:37;;;;;;;1.08;0.50;;;12.00;65.40;;;;;;5006944;28;20026;-54
2022/07/19 00:35:05;;;;;;;2.80;0.60;;;12.00;65.40;;;;;;5012048;28;20779;-56
2022/07/19 00:37:33;;;;;;;3.10;0.50;;;12.10;65.60;;;;;;5003208;28;20029;-53
2022/07/19 00:40:01;;;;;;;1.92;0.95;;;12.10;66.40;;;;;;5008055;28;20091;-56
2022/07/19 00:42:28;;;;;;;5.43;0.70;;;12.10;65.20;;;;;;5018649;28;20028;-57
2022/07/19 00:44:55;;;;;;;1.60;0.57;;;12.10;65.40;;;;;;5008006;28;20406;-54
2022/07/19 00:47:23;;;;;;;2.83;1.45;;;12.20;65.90;;;;;;4997040;28;20045;-55
2022/07/19 00:49:51;;;;;;;1.90;1.00;;;12.30;66.30;;;;;;5009644;28;20044;-55
2022/07/19 00:52:20;;;;;;;1.58;1.20;;;12.40;65.80;;;;;;5007875;28;20057;-58
2022/07/19 00:54:49;;;;;;;3.58;0.77;;;12.50;65.40;;;;;;5010841;28;20124;-53
2022/07/19 00:57:16;;;;;;;5.28;0.52;;;12.60;65.60;;;;;;5011828;28;20409;-60
2022/07/19 00:59:45;;;;;;;5.18;0.65;;;12.70;65.20;;;;;;5006842;28;20053;-55
2022/07/19 01:02:13;;;;;;;1.92;0.68;;;12.90;65.60;;;;;;5019436;28;20025;-55
2022/07/19 01:04:40;;;;;;;5.57;0.82;;;12.90;65.10;;;;;;5012257;28;20030;-54
2022/07/19 01:07:08;;;;;;;2.35;0.50;;;13.00;64.70;;;;;;5022877;28;20057;-58
2022/07/19 01:09:37;;;;;;;2.35;0.47;;;13.00;64.60;;;;;;5006179;28;20030;-60
2022/07/19 01:12:06;;;;;;;3.47;0.73;;;13.10;64.00;;;;;;5007449;28;20073;-58
2022/07/19 01:14:35;;;;;;;5.72;0.70;;;13.10;64.20;;;;;;5006343;28;20054;-57
2022/07/19 01:17:03;;;;;;;2.03;0.50;;;13.30;64.70;;;;;;5008969;28;20034;-56
2022/07/19 01:19:30;;;;;;;3.53;0.63;;;13.50;64.40;;;;;;5012133;28;20095;-59
2022/07/19 01:21:59;;;;;;;1.95;1.00;;;13.60;64.00;;;;;;5017973;28;20017;-59
2022/07/19 01:24:27;;;;;;;5.95;0.95;;;13.70;63.10;;;;;;5010117;28;20840;-59
2022/07/19 01:26:54;;;;;;;1.30;0.50;;;13.80;63.40;;;;;;5006615;28;20104;-58
2022/07/19 01:29:22;;;;;;;5.85;0.93;;;14.00;62.00;;;;;;5000953;28;20014;-56
2022/07/19 01:31:49;;;;;;;2.45;1.40;;;14.00;62.80;;;;;;5015500;28;20033;-55
2022/07/19 01:34:16;;;;;;;1.88;0.47;;;14.10;62.90;;;;;;5020946;28;20032;-57
2022/07/19 01:36:43;;;;;;;24.15;2.28;;;14.30;63.00;;;;;;5014196;28;20506;-55
2022/07/19 01:39:11;;;;;;;3.17;0.50;;;14.40;61.80;;;;;;5016844;28;20041;-57
2022/07/19 01:41:38;;;;;;;1.65;0.30;;;14.60;60.80;;;;;;5015700;28;20024;-58
2022/07/19 01:44:05;;;;;;;2.05;1.20;;;14.70;60.40;;;;;;5014453;28;20092;-60
2022/07/19 01:46:32;;;;;;;1.52;0.35;;;14.90;60.20;;;;;;5006320;28;20022;-56
2022/07/19 01:49:00;;;;;;;2.67;0.30;;;14.80;59.70;;;;;;5017613;28;20119;-58
2022/07/19 01:51:27;;;;;;;1.17;0.50;;;14.60;60.00;;;;;;5010525;28;20022;-57
2022/07/19 01:53:54;;;;;;;4.80;0.60;;;14.60;61.40;;;;;;5019013;28;20033;-57
2022/07/19 01:56:22;;;;;;;2.47;0.60;;;14.60;60.20;;;;;;5015285;28;20549;-57
2022/07/19 01:58:49;;;;;;;1.77;0.30;;;14.60;60.00;;;;;;5017883;28;20037;-57
2022/07/19 02:01:16;;;;;;;1.42;0.20;;;14.60;60.70;;;;;;5021042;28;20021;-57
2022/07/19 02:03:43;;;;;;;1.65;0.30;;;14.80;61.30;;;;;;5015476;28;20029;-58
2022/07/19 02:06:11;;;;;;;2.72;0.30;;;14.90;59.80;;;;;;5014882;28;20044;-58
2022/07/19 02:08:40;;;;;;;2.55;0.40;;;15.00;61.00;;;;;;5008711;28;20065;-57
2022/07/19 02:13:53;;;;;;;0.68;0.30;;;15.40;59.40;;;;;;5013905;28;20788;-56
2022/07/19 02:16:20;;;;;;;1.85;0.45;;;15.50;58.70;;;;;;5007962;28;20065;-55
2022/07/19 02:18:47;;;;;;;1.98;1.00;;;15.30;59.30;;;;;;5007637;28;20109;-51
2022/07/19 02:21:15;;;;;;;2.53;0.40;;;15.20;59.80;;;;;;5012114;28;20099;-56
2022/07/19 02:23:42;;;;;;;4.13;0.68;;;15.00;59.80;;;;;;5009128;28;20029;-51
2022/07/19 02:26:09;;;;;;;1.25;0.30;;;14.90;61.00;;;;;;5012149;28;20492;-56
2022/07/19 02:28:36;;;;;;;3.60;0.40;;;14.90;62.00;;;;;;5008681;28;20049;-57
2022/07/19 02:31:04;;;;;;;1.15;0.47;;;14.70;61.80;;;;;;5012501;28;20054;-55
2022/07/19 02:33:31;;;;;;;4.07;0.50;;;14.60;62.60;;;;;;5007036;28;20060;-54
2022/07/19 02:35:59;;;;;;;2.67;0.35;;;14.50;62.20;;;;;;5009741;28;20022;-56
2022/07/19 02:38:26;;;;;;;4.13;0.47;;;14.40;62.70;;;;;;5012688;28;20030;-55
2022/07/19 02:40:53;;;;;;;5.93;0.88;;;14.40;63.60;;;;;;5012019;28;20036;-58
2022/07/19 02:43:20;;;;;;;4.18;0.50;;;14.40;62.60;;;;;;5009861;28;20073;-57
2022/07/19 02:45:48;;;;;;;6.47;0.50;;;14.40;62.60;;;;;;5006491;28;20437;-56
2022/07/19 02:48:15;;;;;;;3.47;0.40;;;14.50;63.10;;;;;;5011692;28;20060;-57
2022/07/19 02:50:44;;;;;;;5.82;0.52;;;14.60;63.80;;;;;;5011388;28;20117;-55
2022/07/19 02:53:11;;;;;;;0.60;0.20;;;14.70;63.60;;;;;;5009761;28;20030;-55
2022/07/19 02:55:38;;;;;;;2.88;0.45;;;14.60;64.10;;;;;;5008745;28;20475;-57
2022/07/19 02:58:06;;;;;;;1.42;0.20;;;14.70;63.80;;;;;;5023767;28;20033;-57
2022/07/19 03:00:33;;;;;;;1.65;0.10;;;14.80;64.10;;;;;;5017899;28;20026;-58
2022/07/19 03:05:47;;;;;;;0.43;0.25;;;15.00;63.10;;;;;;5007490;28;20064;-57
2022/07/19 03:08:15;;;;;;;1.75;0.30;;;15.00;63.80;;;;;;5008926;28;20022;-56
2022/07/19 03:10:42;;;;;;;0.90;0.35;;;15.00;63.30;;;;;;5014722;28;20486;-55
2022/07/19 03:13:10;;;;;;;1.52;0.40;;;14.80;64.10;;;;;;5015420;28;20049;-57
2022/07/19 03:15:37;;;;;;;0.85;0.40;;;14.70;63.70;;;;;;5014737;28;20030;-57
2022/07/19 03:18:05;;;;;;;0.35;0.13;;;14.60;64.30;;;;;;5011074;28;20029;-56
2022/07/19 03:20:33;;;;;;;1.23;0.45;;;14.50;64.80;;;;;;5019909;28;20021;-57
2022/07/19 03:23:00;;;;;;;1.70;0.25;;;14.40;64.90;;;;;;5018423;28;20101;-58
2022/07/19 03:25:27;;;;;;;1.63;0.17;;;14.40;65.40;;;;;;5012823;28;20030;-55
2022/07/19 03:27:55;;;;;;;1.73;0.40;;;14.40;64.90;;;;;;5016536;28;20018;-58
2022/07/19 03:30:22;;;;;;;1.00;0.15;;;14.50;65.80;;;;;;5020967;28;20727;-56
2022/07/19 03:32:50;;;;;;;4.32;1.48;;;14.30;65.80;;;;;;5019989;28;20815;-57
2022/07/19 03:35:17;;;;;;;2.72;0.30;;;14.20;65.70;;;;;;5025031;28;20037;-59
2022/07/19 03:37:44;;;;;;;0.30;0.28;;;14.20;66.80;;;;;;5019667;28;20029;-58
2022/07/19 03:40:12;;;;;;;1.63;0.20;;;14.40;67.20;;;;;;5015761;28;20034;-59
2022/07/19 03:42:39;;;;;;;2.00;0.47;;;14.40;66.50;;;;;;5016796;28;20085;-59
2022/07/19 03:45:07;;;;;;;0.70;0.20;;;14.50;66.40;;;;;;5011787;28;20451;-58
2022/07/19 03:47:34;;;;;;;1.98;0.28;;;14.50;66.00;;;;;;5008628;28;20048;-57
2022/07/19 03:50:02;;;;;;;0.60;0.30;;;14.40;66.70;;;;;;5021415;28;20026;-63
2022/07/19 03:52:29;;;;;;;0.30;0.20;;;14.20;68.10;;;;;;5014792;28;20030;-56
2022/07/19 03:54:56;;;;;;;3.22;0.40;;;13.90;69.10;;;;;;5027883;28;20021;-58
2022/07/19 03:57:23;;;;;;;1.92;0.28;;;13.90;69.80;;;;;;5016902;28;20036;-58
2022/07/19 03:59:51;;;;;;;3.88;0.17;;;13.80;69.80;;;;;;5016856;28;20149;-57
2022/07/19 04:02:18;;;;;;;0.68;0.32;;;13.90;70.00;;;;;;5016215;28;20105;-59
2022/07/19 04:04:45;;;;;;;0.95;0.38;;;14.10;68.70;;;;;;5015080;28;20133;-57
2022/07/19 04:07:12;;;;;;;4.55;0.50;;;14.30;68.50;;;;;;5008967;28;20053;-58
2022/07/19 04:09:40;;;;;;;1.05;0.25;;;14.40;68.50;;;;;;5016542;28;20022;-59
2022/07/19 04:12:07;;;;;;;0.82;0.20;;;14.40;67.90;;;;;;5008477;28;20121;-59
2022/07/19 04:14:34;;;;;;;0.95;0.30;;;14.20;68.30;;;;;;5008036;28;20022;-59
2022/07/19 04:17:04;;;;;;;5.03;0.40;;;14.30;69.60;;;;;;5010025;28;20029;-62
2022/07/19 04:19:32;;;;;;;1.70;0.40;;;14.10;69.00;;;;;;5004498;28;20483;-56
2022/07/19 04:21:59;;;;;;;4.05;0.60;;;13.90;70.50;;;;;;5010790;28;20036;-58
2022/07/19 04:24:26;;;;;;;0.30;0.20;;;13.80;71.30;;;;;;5013125;28;20030;-58
2022/07/19 04:26:53;;;;;;;0.60;0.30;;;13.80;71.80;;;;;;5013590;28;20030;-59
2022/07/19 04:29:21;;;;;;;3.58;0.50;;;13.90;71.60;;;;;;5015550;28;20029;-58
2022/07/19 04:31:48;;;;;;;1.75;0.20;;;13.80;71.50;;;;;;5021690;28;20021;-60
2022/07/19 04:34:15;;;;;;;1.33;0.60;;;13.90;71.40;;;;;;5022507;28;20029;-59
2022/07/19 04:36:42;;;;;;;2.45;0.30;;;13.80;70.40;;;;;;5014132;28;20026;-59
2022/07/19 04:39:09;;;;;;;0.57;0.17;;;13.80;71.00;;;;;;5025284;28;20103;-59
2022/07/19 04:41:37;;;;;;;4.30;0.40;;;13.80;73.20;;;;;;5006712;28;20030;-59
2022/07/19 04:44:04;;;;;;;2.22;0.40;;;13.80;76.10;;;;;;5020583;28;20040;-55
2022/07/19 04:46:31;;;;;;;1.00;0.40;;;13.60;76.30;;;;;;5014960;28;20030;-63
2022/07/19 04:48:59;;;;;;;0.98;0.40;;;13.40;76.70;;;;;;5013457;28;20084;-57
2022/07/19 04:51:26;;;;;;;2.28;0.47;;;13.20;77.10;;;;;;5014350;28;20101;-57
2022/07/19 04:53:53;;;;;;;1.25;0.30;;;13.10;78.80;;;;;;5019834;28;20070;-54
2022/07/19 04:56:21;;;;;;;0.40;0.15;;;13.00;78.30;;;;;;5016136;28;20087;-58
2022/07/19 04:58:48;;;;;;;2.28;0.50;;;12.90;79.10;;;;;;5024053;28;20140;-53
2022/07/19 05:01:15;;;;;;;3.03;0.65;;;12.80;78.50;;;;;;5007736;28;20029;-55
2022/07/19 05:03:42;;;;;;;1.67;0.40;;;12.90;78.50;;;;;;5015644;28;20037;-56
2022/07/19 05:06:10;;;;;;;2.15;0.40;;;12.90;78.50;;;;;;5006913;28;20018;-55
2022/07/19 05:08:37;;;;;;;2.63;0.80;;;13.00;76.50;;;;;;5019394;28;20022;-55
2022/07/19 05:11:05;;;;;;;1.33;0.32;;;13.00;75.60;;;;;;5015356;28;20506;-55
2022/07/19 05:13:32;;;;;;;3.75;0.38;;;13.10;75.80;;;;;;5016287;28;20025;-60
2022/07/19 05:16:00;;;;;;;0.95;0.30;;;13.10;75.30;;;;;;5018727;28;20021;-57
2022/07/19 05:18:27;;;;;;;0.95;0.20;;;13.10;75.40;;;;;;5014053;28;20159;-58
2022/07/19 05:20:54;;;;;;;1.42;0.30;;;13.10;76.10;;;;;;5026524;28;20556;-55
2022/07/19 05:23:21;;;;;;;0.25;0.20;;;13.10;78.20;;;;;;5014732;28;20605;-57
2022/07/19 05:25:48;;;;;;;2.08;0.28;;;12.90;78.70;;;;;;5019985;28;20048;-56
2022/07/19 05:28:16;;;;;;;0.47;0.20;;;12.70;82.90;;;;;;5010881;28;20099;-56
2022/07/19 05:30:43;;;;;;;1.65;0.35;;;12.40;83.30;;;;;;5026041;28;20077;-55
2022/07/19 05:33:10;;;;;;;2.15;0.45;;;12.10;89.50;;;;;;5008436;28;20041;-54
2022/07/19 05:35:38;;;;;;;0.82;0.47;;;12.00;90.00;;;;;;5012187;28;20536;-56
2022/07/19 05:38:05;;;;;;;1.15;0.30;;;11.80;90.70;;;;;;5020679;28;20025;-56
2022/07/19 05:40:32;;;;;;;3.90;0.60;;;11.60;91.90;;;;;;5014023;28;20096;-55
2022/07/19 05:43:00;;;;;;;1.65;0.50;;;11.50;92.80;;;;;;5014040;28;20022;-55
2022/07/19 05:45:28;;;;;;;1.23;0.30;;;11.40;93.20;;;;;;5023040;28;20025;-56
2022/07/19 05:47:55;;;;;;;5.40;0.50;;;11.40;93.40;;;;;;5015246;28;20038;-54
2022/07/19 05:50:22;;;;;;;2.00;1.75;;;11.40;94.20;;;;;;5023021;28;20092;-54
2022/07/19 05:52:50;;;;;;;12.15;10.90;;;11.40;93.70;;;;;;5009809;28;20026;-55
2022/07/19 05:55:17;;;;;;;5.57;2.55;;;11.30;94.60;;;;;;4995868;28;20068;-54
2022/07/19 05:57:44;;;;;;;13.10;9.88;;;11.30;94.60;;;;;;5009839;28;20030;-56
2022/07/19 06:00:14;;;;;;;6.30;4.82;;;11.30;94.30;;;;;;5006455;28;20041;-54
2022/07/19 06:02:41;;;;;;;4.30;1.02;;;11.20;94.40;;;;;;5009540;28;20029;-55
2022/07/19 06:05:09;;;;;;;3.28;1.23;;;11.20;94.30;;;;;;5012464;28;20026;-59
2022/07/19 06:07:36;;;;;;;3.05;1.80;;;11.20;93.80;;;;;;5011412;28;20449;-56
2022/07/19 06:10:04;;;;;;;3.05;1.02;;;11.20;93.90;;;;;;5019395;28;20025;-58
2022/07/19 06:12:31;;;;;;;3.63;2.20;;;11.10;93.60;;;;;;5013435;28;20026;-54
2022/07/19 06:14:59;;;;;;;68.28;47.35;;;11.00;93.60;;;;;;5002430;28;20479;-56
2022/07/19 06:17:26;;;;;;;5.72;3.28;;;11.10;93.80;;;;;;5005922;28;20018;-56
2022/07/19 06:19:53;;;;;;;4.63;2.42;;;11.10;93.90;;;;;;5005444;28;20042;-56
2022/07/19 06:22:21;;;;;;;1.30;0.90;;;11.00;94.30;;;;;;5004563;28;20498;-59
2022/07/19 06:24:48;;;;;;;3.65;1.60;;;11.00;94.30;;;;;;5003151;28;20081;-53
2022/07/19 06:27:15;;;;;;;7.53;4.35;;;10.90;94.70;;;;;;5005093;28;20029;-58
2022/07/19 06:29:43;;;;;;;3.63;1.85;;;10.80;95.10;;;;;;5003129;28;20026;-59
2022/07/19 06:32:10;;;;;;;28.00;22.60;;;10.70;95.70;;;;;;5001795;28;20065;-59
2022/07/19 06:34:37;;;;;;;27.85;20.42;;;10.50;95.80;;;;;;5001463;28;20112;-57
2022/07/19 06:37:05;;;;;;;12.38;11.07;;;10.50;96.30;;;;;;5006084;28;20026;-58
2022/07/19 06:39:33;;;;;;;7.57;6.88;;;10.40;96.20;;;;;;4999152;28;20439;-60
2022/07/19 06:42:01;;;;;;;5.30;2.83;;;10.40;96.40;;;;;;5012052;28;20026;-58
2022/07/19 06:44:28;;;;;;;3.85;2.78;;;10.40;96.30;;;;;;5001991;28;20041;-55
2022/07/19 06:46:55;;;;;;;4.32;1.38;;;10.40;96.30;;;;;;5013562;28;20046;-57
2022/07/19 06:49:22;;;;;;;3.45;0.90;;;10.30;96.30;;;;;;5002310;28;20029;-57
2022/07/19 06:51:49;;;;;;;2.83;1.02;;;10.20;96.20;;;;;;4999725;28;20411;-54
2022/07/19 06:54:17;;;;;;;2.45;0.85;;;10.20;96.20;;;;;;5002307;28;20053;-57
2022/07/19 06:56:44;;;;;;;2.08;0.70;;;10.20;96.40;;;;;;5001533;28;20032;-58
2022/07/19 06:59:11;;;;;;;2.58;1.30;;;10.20;96.10;;;;;;5002185;28;20065;-56
2022/07/19 07:01:38;;;;;;;3.40;1.67;;;10.20;96.30;;;;;;5003452;28;20530;-57
2022/07/19 07:04:05;;;;;;;4.78;1.00;;;10.20;96.20;;;;;;4993878;28;20142;-57
2022/07/19 07:06:33;;;;;;;3.78;1.00;;;10.20;95.80;;;;;;4998851;28;20101;-58
2022/07/19 07:09:01;;;;;;;1.63;0.82;;;10.20;95.90;;;;;;5004975;28;20754;-57
2022/07/19 07:11:28;;;;;;;2.95;0.60;;;10.20;96.10;;;;;;5006936;28;20026;-57
2022/07/19 07:13:55;;;;;;;1.88;0.80;;;10.10;96.00;;;;;;5001360;28;20034;-57
2022/07/19 07:16:22;;;;;;;1.95;0.65;;;10.10;96.00;;;;;;5000632;28;20070;-61
2022/07/19 07:18:50;;;;;;;3.17;0.60;;;10.10;96.10;;;;;;5004999;28;20030;-60
2022/07/19 07:21:17;;;;;;;1.23;0.45;;;10.00;96.20;;;;;;5002399;28;20026;-60
2022/07/19 07:23:44;;;;;;;0.82;0.32;;;10.00;96.30;;;;;;5001100;28;20033;-56
2022/07/19 07:26:11;;;;;;;8.77;1.10;;;10.00;96.60;;;;;;4999987;28;20025;-57
2022/07/19 07:28:39;;;;;;;1.80;1.00;;;9.90;96.60;;;;;;5002359;28;20033;-53
2022/07/19 07:31:06;;;;;;;1.73;0.98;;;9.90;96.80;;;;;;5005604;28;20144;-54
2022/07/19 07:33:33;;;;;;;2.85;1.13;;;9.90;96.90;;;;;;4999394;28;20061;-55
2022/07/19 07:36:00;;;;;;;4.20;2.58;;;9.90;97.10;;;;;;5002082;28;20022;-56
2022/07/19 07:38:28;;;;;;;3.47;2.50;;;9.90;97.10;;;;;;5005528;28;20061;-56
2022/07/19 07:40:56;;;;;;;4.40;1.92;;;9.90;97.30;;;;;;5006248;28;20084;-56
2022/07/19 07:43:23;;;;;;;2.70;2.33;;;9.90;97.60;;;;;;5025096;28;20076;-56
2022/07/19 07:45:50;;;;;;;8.23;2.35;;;9.80;97.60;;;;;;5016563;28;20026;-58
2022/07/19 07:48:17;;;;;;;5.70;1.95;;;9.80;97.70;;;;;;5015769;28;20061;-60
2022/07/19 07:50:44;;;;;;;3.95;2.17;;;9.80;97.80;;;;;;5006839;28;20026;-58
2022/07/19 07:53:12;;;;;;;7.68;3.80;;;9.80;97.90;;;;;;5007067;28;20030;-53
2022/07/19 07:55:39;;;;;;;1.95;1.02;;;9.80;98.00;;;;;;5004382;28;20022;-59
2022/07/19 07:58:09;;;;;;;2.42;1.08;;;9.80;97.90;;;;;;5004628;28;20026;-56
2022/07/19 08:00:38;;;;;;;3.47;1.30;;;9.70;98.00;;;;;;5009669;28;20057;-56
2022/07/19 08:03:05;;;;;;;3.33;2.25;;;9.70;98.10;;;;;;5005494;28;20034;-55
2022/07/19 08:05:33;;;;;;;5.88;4.30;;;9.70;98.50;;;;;;5006417;28;20465;-58
2022/07/19 08:08:01;;;;;;;3.03;1.90;;;9.60;98.50;;;;;;5010677;28;20022;-57
2022/07/19 08:10:32;;;;;;;4.30;1.42;;;9.60;98.50;;;;;;5002123;28;20479;-55
2022/07/19 08:12:59;;;;;;;10.32;1.45;;;9.60;98.50;;;;;;5011011;28;20026;-57
2022/07/19 08:15:26;;;;;;;5.97;3.03;;;9.60;98.70;;;;;;5008564;28;20030;-57
2022/07/19 08:17:53;;;;;;;2.38;1.67;;;9.60;98.70;;;;;;5011063;28;20034;-61
2022/07/19 08:20:21;;;;;;;4.70;2.75;;;9.60;98.80;;;;;;5021585;28;20063;-59
2022/07/19 08:22:48;;;;;;;7.75;2.88;;;9.60;98.80;;;;;;5012062;28;20090;-58
2022/07/19 08:25:16;;;;;;;7.47;3.40;;;9.60;98.80;;;;;;5017271;28;20433;-58
2022/07/19 08:27:44;;;;;;;6.60;3.80;;;9.60;98.80;;;;;;5019574;28;20032;-56
2022/07/19 08:30:13;;;;;;;9.32;6.32;;;9.60;98.90;;;;;;5008167;28;20022;-58
2022/07/19 08:32:41;;;;;;;30.88;19.20;;;9.60;99.00;;;;;;5007871;28;20036;-58
2022/07/19 08:35:09;;;;;;;32.50;20.98;;;9.60;99.00;;;;;;5026187;28;20029;-58
2022/07/19 08:37:37;;;;;;;25.75;16.75;;;9.60;99.00;;;;;;5007606;28;20026;-54
2022/07/19 08:40:06;;;;;;;22.33;15.38;;;9.60;99.00;;;;;;5008625;28;20096;-57
2022/07/19 08:42:34;;;;;;;23.67;15.85;;;9.60;99.10;;;;;;5010714;28;20084;-57
2022/07/19 08:45:10;;;;;;;23.98;15.82;;;9.60;99.10;;;;;;5015483;28;20026;-59
2022/07/19 08:47:38;;;;;;;14.07;9.45;;;9.50;99.10;;;;;;5010636;28;20042;-58
2022/07/19 08:50:08;;;;;;;19.63;13.77;;;9.50;99.10;;;;;;5005262;28;20497;-63
2022/07/19 08:52:37;;;;;;;9.63;5.90;;;9.50;99.20;;;;;;5006675;28;20038;-57
2022/07/19 08:55:05;;;;;;;14.25;11.88;;;9.50;99.10;;;;;;5004420;28;20148;-58
2022/07/19 09:00:18;;;;;;;25.08;22.35;;;9.40;99.00;;;;;;5003767;28;20053;-57
2022/07/19 09:03:05;;;;;;;17.02;13.52;;;9.40;99.30;;;;;;5009706;28;20026;-57
2022/07/19 09:05:36;;;;;;;19.92;13.25;;;9.50;99.40;;;;;;5005283;28;20030;-62
2022/07/19 09:08:14;;;;;;;5.70;2.20;;;9.50;99.10;;;;;;5010369;28;20034;-56
2022/07/19 09:13:33;;;;;;;3.65;2.28;;;9.50;98.80;;;;;;5013395;28;20044;-52
2022/07/19 09:16:01;;;;;;;8.40;4.35;;;9.40;98.70;;;;;;5006964;28;20026;-55
2022/07/19 09:18:30;;;;;;;8.45;3.60;;;9.40;98.50;;;;;;5006474;28;20033;-59
2022/07/19 09:21:03;;;;;;;8.43;6.90;;;9.40;98.70;;;;;;5023757;28;20036;-59
2022/07/19 09:23:31;;;;;;;3.03;2.10;;;9.40;98.80;;;;;;5012496;28;20071;-57
2022/07/19 09:26:01;;;;;;;6.43;1.52;;;9.40;98.70;;;;;;5008629;28;20129;-58
2022/07/19 09:28:32;;;;;;;1.20;0.73;;;9.30;98.70;;;;;;5011958;28;20021;-59
2022/07/19 09:31:02;;;;;;;8.52;2.85;;;9.30;98.60;;;;;;5007503;28;20022;-56
2022/07/19 09:33:31;;;;;;;10.80;7.70;;;9.20;99.10;;;;;;5006961;28;20022;-57
2022/07/19 09:36:01;;;;;;;5.80;2.47;;;9.30;98.70;;;;;;5003212;28;20026;-50
2022/07/19 09:38:42;;;;;;;4.72;1.40;;;9.20;98.80;;;;;;5006508;28;20116;-56
2022/07/19 09:41:15;;;;;;;3.90;2.10;;;9.20;98.80;;;;;;5007021;28;20028;-54
2022/07/19 09:44:00;;;;;;;4.03;2.23;;;9.20;98.80;;;;;;5016095;28;20067;-53
2022/07/19 09:46:32;;;;;;;4.57;1.17;;;9.20;98.90;;;;;;5000669;28;20092;-56
2022/07/19 09:49:13;;;;;;;4.72;2.15;;;9.20;99.00;;;;;;5011126;28;20430;-56
2022/07/19 09:51:44;;;;;;;15.13;9.50;;;9.20;99.00;;;;;;5011673;28;20029;-53
2022/07/19 09:54:15;;;;;;;12.68;9.85;;;9.30;99.10;;;;;;5006058;28;20506;-55
2022/07/19 09:56:43;;;;;;;6.25;3.90;;;9.30;99.00;;;;;;5006028;28;20064;-48
2022/07/19 09:59:12;;;;;;;4.82;2.08;;;9.30;99.10;;;;;;5004708;28;20037;-55
2022/07/19 10:01:41;;;;;;;5.40;2.75;;;9.30;99.20;;;;;;5009568;28;20026;-52
2022/07/19 10:04:13;;;;;;;9.65;6.97;;;9.30;99.20;;;;;;5006403;28;20026;-51
2022/07/19 10:06:42;;;;;;;6.60;2.70;;;9.30;99.30;;;;;;5008752;28;20401;-52
2022/07/19 10:09:11;;;;;;;3.60;1.90;;;9.20;99.30;;;;;;5011613;28;20052;-56
2022/07/19 10:11:40;;;;;;;2.88;1.90;;;9.20;99.20;;;;;;5007887;28;20026;-56
2022/07/19 10:14:07;;;;;;;9.18;4.47;;;9.20;99.40;;;;;;5007860;28;20060;-53
2022/07/19 10:17:05;;;;;;;4.28;3.20;;;9.10;99.70;;;;;;5006888;28;20030;-56
2022/07/19 10:19:38;;;;;;;7.93;3.35;;;9.10;99.50;;;;;;5003180;28;20037;-53
2022/07/19 10:22:10;;;;;;;7.70;4.20;;;9.10;99.40;;;;;;5004372;28;20058;-53
2022/07/19 10:24:54;;;;;;;4.57;3.25;;;9.10;99.40;;;;;;5012471;28;20026;-52
2022/07/19 10:27:25;;;;;;;7.30;3.40;;;9.00;99.40;;;;;;5008271;28;20021;-52
2022/07/19 10:29:58;;;;;;;4.93;3.17;;;8.90;99.40;;;;;;5003609;28;20029;-54
2022/07/19 10:32:30;;;;;;;2.63;1.35;;;8.80;99.30;;;;;;5005487;28;20032;-56
2022/07/19 10:35:20;;;;;;;5.75;2.90;;;8.80;99.40;;;;;;5006531;28;20773;-54
2022/07/19 10:37:55;;;;;;;6.50;1.95;;;8.70;99.60;;;;;;5005114;28;20589;-53
2022/07/19 10:40:36;;;;;;;;;;;8.70;99.70;;;;;;5005812;28;20044;-55
2022/07/19 10:43:12;;;;;;;4.80;2.58;;;8.70;99.80;;;;;;5009127;28;19965;-59
2022/07/19 10:46:00;;;;;;;3.15;1.45;;;8.70;99.90;;;;;;5006805;28;20487;-55
2022/07/19 10:48:38;;;;;;;9.02;4.05;;;8.70;99.90;;;;;;5007131;28;20069;-53
2022/07/19 10:51:11;;;;;;;5.72;1.75;;;8.70;99.90;;;;;;5004039;28;20104;-54
2022/07/19 10:53:41;;;;;;;4.88;1.60;;;8.80;99.90;;;;;;5004559;28;20032;-57
2022/07/19 10:56:19;;;;;;;4.88;1.48;;;8.80;99.90;;;;;;5008558;28;20538;-55
2022/07/19 10:58:52;;;;;;;4.43;1.50;;;8.80;99.90;;;;;;5003675;28;20112;-56
2022/07/19 11:01:21;;;;;;;3.63;1.52;;;8.80;99.90;;;;;;5013903;28;20048;-56
2022/07/19 11:03:50;;;;;;;3.13;1.65;;;8.80;99.90;;;;;;5004670;28;20037;-57
2022/07/19 11:06:26;;;;;;;4.28;1.70;;;8.90;99.90;;;;;;5006001;28;20072;-54
2022/07/19 11:08:59;;;;;;;8.52;2.00;;;8.90;99.90;;;;;;5005498;28;20029;-55
2022/07/19 11:11:27;;;;;;;3.03;2.00;;;8.90;99.90;;;;;;5005552;28;20029;-57
2022/07/19 11:14:00;;;;;;;8.18;3.42;;;8.90;99.90;;;;;;5007895;28;20036;-56
2022/07/19 11:16:29;;;;;;;4.85;2.80;;;8.90;99.90;;;;;;5021429;28;20553;-57
2022/07/19 11:19:07;;;;;;;3.80;2.35;;;9.00;99.90;;;;;;5008521;28;20030;-57
2022/07/19 11:21:37;;;;;;;7.45;3.20;;;9.00;99.60;;;;;;5019915;28;20397;-56
2022/07/19 11:24:05;;;;;;;4.40;2.85;;;9.00;99.50;;;;;;5024823;28;20030;-55
2022/07/19 11:26:40;;;;;;;6.60;3.10;;;8.90;99.40;;;;;;5020906;28;20034;-53
2022/07/19 11:29:07;;;;;;;3.92;2.10;;;8.80;99.50;;;;;;5014575;28;20037;-52
2022/07/19 11:31:34;;;;;;;5.55;2.15;;;8.70;99.70;;;;;;5021905;28;20037;-56
2022/07/19 11:34:02;;;;;;;7.95;3.42;;;8.70;99.70;;;;;;5020016;28;20096;-52
2022/07/19 11:36:29;;;;;;;9.63;2.92;;;8.70;99.90;;;;;;5015802;28;20109;-54
2022/07/19 11:39:03;;;;;;;5.07;2.70;;;8.70;99.80;;;;;;5016738;28;20071;-54
2022/07/19 11:41:33;;;;;;;4.80;2.53;;;8.70;99.80;;;;;;5017864;28;20022;-56
2022/07/19 11:44:02;;;;;;;4.82;2.45;;;8.70;99.90;;;;;;5014996;28;20033;-55
2022/07/19 11:46:37;;;;;;;3.45;1.60;;;8.70;99.90;;;;;;5022013;28;20049;-57
2022/07/19 11:49:06;;;;;;;3.80;1.98;;;8.70;99.90;;;;;;5006420;28;20510;-52
2022/07/19 11:51:34;;;;;;;6.63;1.75;;;8.70;99.90;;;;;;5016466;28;20025;-55
2022/07/19 11:54:03;;;;;;;7.43;2.13;;;8.60;99.90;;;;;;5025982;28;20580;-54
2022/07/19 11:56:32;;;;;;;8.68;1.45;;;8.60;99.90;;;;;;5016176;28;20487;-53
2022/07/19 11:59:01;;;;;;;5.57;2.10;;;8.50;99.90;;;;;;5016471;28;20037;-51
2022/07/19 12:01:37;;;;;;;3.63;1.77;;;8.50;99.90;;;;;;5002581;28;20017;-58
2022/07/19 12:04:07;;;;;;;4.25;1.92;;;8.40;99.90;;;;;;5017669;28;20022;-60
2022/07/19 12:06:41;;;;;;;10.50;2.72;;;8.40;99.90;;;;;;5017436;28;20022;-57
2022/07/19 12:09:13;;;;;;;7.63;2.00;;;8.30;99.90;;;;;;5013464;28;20052;-57
2022/07/19 12:11:48;;;;;;;5.15;1.70;;;8.30;99.90;;;;;;5007441;28;20387;-57
2022/07/19 12:14:26;;;;;;;6.13;4.35;;;8.20;99.90;;;;;;4999581;28;20113;-56
2022/07/19 12:17:20;;;;;;;4.22;2.08;;;8.10;99.90;;;;;;5006413;28;20124;-55
2022/07/19 12:19:54;;;;;;;5.18;4.18;;;8.00;99.90;;;;;;5009092;28;20049;-56
2022/07/19 12:22:47;;;;;;;5.40;1.80;;;8.00;99.90;;;;;;5008793;28;20026;-56
2022/07/19 12:25:14;;;;;;;6.82;3.08;;;8.00;99.90;;;;;;4998383;28;20033;-55
2022/07/19 12:27:41;;;;;;;6.50;2.47;;;8.00;99.90;;;;;;5012357;28;20030;-57
2022/07/19 12:30:19;;;;;;;6.07;2.72;;;8.00;99.90;;;;;;5010673;28;20017;-57
2022/07/19 12:32:47;;;;;;;11.02;3.78;;;8.00;99.90;;;;;;5016578;28;20068;-56
2022/07/19 12:35:16;;;;;;;5.88;2.42;;;8.10;99.90;;;;;;5027263;28;20210;-57
2022/07/19 12:37:50;;;;;;;5.95;4.20;;;8.10;99.90;;;;;;5017435;28;20490;-56
2022/07/19 12:40:25;;;;;;;10.48;3.92;;;8.20;99.90;;;;;;5015690;28;20407;-58
2022/07/19 12:43:00;;;;;;;7.47;3.72;;;8.30;99.90;;;;;;5017462;28;20116;-56
2022/07/19 12:45:41;;;;;;;8.85;4.50;;;8.40;99.90;;;;;;5017707;28;20018;-57
2022/07/19 12:48:10;;;;;;;9.20;3.72;;;8.40;99.90;;;;;;5019817;28;20140;-57
2022/07/19 12:50:49;;;;;;;12.43;5.88;;;8.40;99.90;;;;;;5023784;28;20034;-57
2022/07/19 12:53:17;;;;;;;7.10;4.53;;;8.40;99.90;;;;;;5010077;28;20384;-58
2022/07/19 12:55:45;;;;;;;10.35;4.07;;;8.40;99.90;;;;;;5010799;28;20034;-56
2022/07/19 12:59:38;;;;;;;6.50;3.30;;;8.40;99.90;;;;;;5020651;28;20124;-55
2022/07/19 13:01:02;;;;;;;6.85;3.60;;;8.40;99.90;;;;;;5012189;28;20034;-56
2022/07/19 13:03:29;;;;;;;5.45;3.05;;;8.50;99.90;;;;;;5024431;28;20053;-57
2022/07/19 13:05:59;;;;;;;6.30;3.65;;;8.50;99.90;;;;;;5012266;28;20038;-57
2022/07/19 13:08:28;;;;;;;11.65;3.80;;;8.50;99.90;;;;;;5009235;28;20065;-57
2022/07/19 13:10:56;;;;;;;7.75;3.33;;;8.50;99.90;;;;;;5010247;28;20104;-57